Terminal Aerodrome Forecast
Issued by NWS

Home | Current Version | Previous Version | Graphics & Text | Print | Product List | Glossary Off
Versions: 1 2 3 4 5 6 7 8 9 10 11 12 13 14 15 16 17

000
FTUS43 KDDC 182320
TAFGCK
TAF
KGCK 182320Z 1900/1924 VRB06KT P6SM BKN250
     FM191500 12012KT P6SM BKN250
     FM191900 17017G25KT P6SM SCT250=

USA.gov is the U.S. government's official web portal to all federal, state and local government web resources and services.